Time;durP1;ratioP1;P1;durP2;ratioP2;P2;SDS_P1;SDS_P2;PMS_P1;PMS_P2;Temp;Humidity;BMP_temperature;BMP_pressure;BME280_temperature;BME280_humidity;BME280_pressure;Samples;Min_cycle;Max_cycle;Signal;HPM_P1;HPM_P2
2023/05/03 00:02:12;;;;;;;7.00;4.67;;;;;;;;;;5066558;28;20539;-67
2023/05/03 00:04:40;;;;;;;4.57;4.30;;;;;;;;;;5066784;28;20499;-67
2023/05/03 00:07:07;;;;;;;4.70;4.30;;;;;;;;;;5069264;28;20457;-67
2023/05/03 00:09:36;;;;;;;3.60;3.40;;;;;;;;;;5068364;28;20468;-69
2023/05/03 00:12:04;;;;;;;3.07;2.90;;;;;;;;;;5066332;28;20431;-67
2023/05/03 00:14:30;;;;;;;3.30;3.20;;;;;;;;;;5068270;28;20421;-67
2023/05/03 00:16:56;;;;;;;2.90;2.90;;;;;;;;;;5067557;28;20487;-66
2023/05/03 00:19:25;;;;;;;3.57;3.37;;;;;;;;;;5070004;28;20460;-67
2023/05/03 00:21:51;;;;;;;3.10;3.00;;;;;;;;;;5068008;28;20442;-67
2023/05/03 00:24:17;;;;;;;3.60;3.50;;;;;;;;;;5071472;28;20433;-67
2023/05/03 00:26:43;;;;;;;4.33;3.93;;;;;;;;;;5072061;28;20426;-67
2023/05/03 00:29:09;;;;;;;3.87;3.77;;;;;;;;;;5071828;28;20472;-67
2023/05/03 00:31:35;;;;;;;3.50;3.40;;;;;;;;;;5072297;28;20437;-69
2023/05/03 00:34:01;;;;;;;3.90;3.37;;;;;;;;;;5069776;28;20516;-68
2023/05/03 00:36:27;;;;;;;3.40;3.30;;;;;;;;;;5072547;28;20528;-68
2023/05/03 00:38:53;;;;;;;4.70;4.40;;;;;;;;;;5070551;28;20433;-67
2023/05/03 00:41:20;;;;;;;4.60;3.07;;;;;;;;;;5071377;28;20437;-68
2023/05/03 00:43:45;;;;;;;3.10;3.00;;;;;;;;;;5069928;28;20926;-71
2023/05/03 00:46:12;;;;;;;3.90;3.73;;;;;;;;;;5070607;28;20465;-69
2023/05/03 00:48:38;;;;;;;4.90;3.50;;;;;;;;;;5067337;28;20511;-69
2023/05/03 00:51:04;;;;;;;4.13;3.80;;;;;;;;;;5070685;28;20856;-69
2023/05/03 00:53:30;;;;;;;3.27;3.07;;;;;;;;;;5068569;28;20780;-68
2023/05/03 00:55:58;;;;;;;4.67;3.70;;;;;;;;;;5069285;28;20487;-68
2023/05/03 00:58:24;;;;;;;4.20;4.00;;;;;;;;;;5067992;28;20941;-68
2023/05/03 01:00:50;;;;;;;3.93;3.83;;;;;;;;;;5068615;28;20443;-67
2023/05/03 01:03:16;;;;;;;4.30;4.10;;;;;;;;;;5070697;28;20465;-68
2023/05/03 01:05:50;;;;;;;4.17;3.70;;;;;;;;;;5071613;28;20418;-67
2023/05/03 01:08:35;;;;;;;5.90;3.67;;;;;;;;;;5070229;28;21018;-67
2023/05/03 01:11:02;;;;;;;3.43;3.20;;;;;;;;;;5069372;28;20543;-68
2023/05/03 01:13:34;;;;;;;5.27;4.10;;;;;;;;;;5071117;28;20508;-68
2023/05/03 01:16:20;;;;;;;5.70;4.20;;;;;;;;;;5069575;28;20437;-70
2023/05/03 01:18:48;;;;;;;4.33;4.03;;;;;;;;;;5071095;28;20451;-67
2023/05/03 01:21:17;;;;;;;4.93;4.53;;;;;;;;;;5070760;28;20422;-67
2023/05/03 01:23:46;;;;;;;4.73;3.90;;;;;;;;;;5070507;28;20440;-71
2023/05/03 01:26:22;;;;;;;5.93;5.47;;;;;;;;;;5067951;28;20471;-67
2023/05/03 01:28:48;;;;;;;4.30;4.00;;;;;;;;;;5070851;28;20560;-68
2023/05/03 01:31:19;;;;;;;3.97;3.70;;;;;;;;;;5068224;28;20540;-67
2023/05/03 01:33:48;;;;;;;4.00;3.90;;;;;;;;;;5070738;28;20515;-67
2023/05/03 01:36:27;;;;;;;3.73;3.60;;;;;;;;;;5066610;28;20429;-67
2023/05/03 01:38:54;;;;;;;5.40;3.90;;;;;;;;;;5067327;28;20445;-69
2023/05/03 01:41:21;;;;;;;4.63;4.00;;;;;;;;;;5070263;28;20459;-68
2023/05/03 01:43:47;;;;;;;5.13;4.70;;;;;;;;;;5069339;28;20422;-66
2023/05/03 01:46:13;;;;;;;4.87;4.43;;;;;;;;;;5067346;28;22160;-67
2023/05/03 01:48:39;;;;;;;5.00;4.57;;;;;;;;;;5066532;28;20965;-68
2023/05/03 01:51:05;;;;;;;3.63;3.53;;;;;;;;;;5070853;28;20425;-68
2023/05/03 01:53:31;;;;;;;4.70;4.23;;;;;;;;;;5065869;28;20888;-66
2023/05/03 01:55:57;;;;;;;4.70;4.30;;;;;;;;;;5070138;28;20515;-67
2023/05/03 01:58:22;;;;;;;5.63;4.50;;;;;;;;;;5067551;28;20783;-68
2023/05/03 02:00:49;;;;;;;4.30;3.90;;;;;;;;;;5070116;28;20433;-67
2023/05/03 02:03:15;;;;;;;4.40;4.00;;;;;;;;;;5069870;28;20429;-67
2023/05/03 02:05:41;;;;;;;5.77;4.57;;;;;;;;;;5069797;28;21188;-68
2023/05/03 02:08:07;;;;;;;4.40;4.10;;;;;;;;;;5069947;28;20944;-67
2023/05/03 02:10:33;;;;;;;4.13;3.93;;;;;;;;;;5065706;28;20971;-67
2023/05/03 02:12:59;;;;;;;4.87;4.40;;;;;;;;;;5070304;28;20508;-67
2023/05/03 02:15:25;;;;;;;4.10;4.00;;;;;;;;;;5069489;28;20811;-68
2023/05/03 02:17:52;;;;;;;3.73;3.53;;;;;;;;;;5070485;28;20409;-68
2023/05/03 02:20:19;;;;;;;5.37;4.17;;;;;;;;;;5067188;28;20444;-68
2023/05/03 02:22:44;;;;;;;4.40;4.20;;;;;;;;;;5068496;28;20417;-66
2023/05/03 02:25:10;;;;;;;4.13;3.93;;;;;;;;;;5067934;28;20933;-69
2023/05/03 02:27:36;;;;;;;4.10;3.83;;;;;;;;;;5069008;28;20981;-67
2023/05/03 02:30:03;;;;;;;5.03;4.73;;;;;;;;;;5068740;28;20447;-69
2023/05/03 02:32:29;;;;;;;6.90;4.40;;;;;;;;;;5069791;28;20440;-68
2023/05/03 02:34:55;;;;;;;6.47;4.43;;;;;;;;;;5068759;28;20472;-70
2023/05/03 02:37:21;;;;;;;3.97;3.87;;;;;;;;;;5068710;28;20856;-69
2023/05/03 02:39:47;;;;;;;4.53;4.17;;;;;;;;;;5067545;28;20452;-69
2023/05/03 02:42:13;;;;;;;4.30;4.20;;;;;;;;;;5068514;28;20925;-69
2023/05/03 02:44:39;;;;;;;4.70;4.40;;;;;;;;;;5067943;28;20453;-69
2023/05/03 02:47:06;;;;;;;5.40;4.93;;;;;;;;;;5070265;28;20410;-67
2023/05/03 02:49:32;;;;;;;4.50;4.20;;;;;;;;;;5068255;28;20996;-70
2023/05/03 02:51:58;;;;;;;5.30;4.60;;;;;;;;;;5069467;28;20437;-69
2023/05/03 02:54:24;;;;;;;5.63;5.20;;;;;;;;;;5069148;28;20929;-67
2023/05/03 02:56:50;;;;;;;4.40;4.20;;;;;;;;;;5069397;28;20445;-67
2023/05/03 02:59:16;;;;;;;4.67;4.37;;;;;;;;;;5069286;28;20429;-68
2023/05/03 03:01:42;;;;;;;4.23;4.13;;;;;;;;;;5069019;28;20449;-69
2023/05/03 03:04:09;;;;;;;5.30;4.80;;;;;;;;;;5068035;28;20421;-68
2023/05/03 03:06:35;;;;;;;8.27;4.70;;;;;;;;;;5069355;28;20438;-69
2023/05/03 03:09:01;;;;;;;6.30;5.00;;;;;;;;;;5066965;28;20954;-69
2023/05/03 03:11:27;;;;;;;5.13;4.80;;;;;;;;;;5069483;28;20479;-67
2023/05/03 03:13:52;;;;;;;6.80;5.17;;;;;;;;;;5069480;28;20433;-67
2023/05/03 03:16:18;;;;;;;6.10;5.03;;;;;;;;;;5068105;28;20431;-68
2023/05/03 03:18:45;;;;;;;5.40;5.00;;;;;;;;;;5068506;28;20976;-67
2023/05/03 03:21:10;;;;;;;5.77;5.30;;;;;;;;;;5068685;28;20464;-67
2023/05/03 03:23:36;;;;;;;8.53;7.50;;;;;;;;;;5068430;28;20461;-69
2023/05/03 03:26:02;;;;;;;15.27;6.33;;;;;;;;;;5068376;28;20479;-67
2023/05/03 03:28:28;;;;;;;6.50;5.93;;;;;;;;;;5068427;28;20484;-67
2023/05/03 03:30:54;;;;;;;6.77;5.93;;;;;;;;;;5068749;28;20433;-67
2023/05/03 03:33:21;;;;;;;5.10;4.80;;;;;;;;;;5069453;28;20474;-67
2023/05/03 03:35:47;;;;;;;5.70;5.20;;;;;;;;;;5068968;28;20474;-67
2023/05/03 03:38:13;;;;;;;7.47;5.70;;;;;;;;;;5069429;28;20436;-68
2023/05/03 03:40:39;;;;;;;5.77;5.20;;;;;;;;;;5068344;28;20417;-69
2023/05/03 03:43:05;;;;;;;4.37;3.97;;;;;;;;;;5069248;28;21006;-68
2023/05/03 03:45:31;;;;;;;6.10;5.70;;;;;;;;;;5068882;28;20481;-67
2023/05/03 03:47:57;;;;;;;5.37;4.97;;;;;;;;;;5067258;28;20465;-67
2023/05/03 03:50:24;;;;;;;5.63;5.33;;;;;;;;;;5068461;28;20453;-67
2023/05/03 03:52:50;;;;;;;6.13;5.40;;;;;;;;;;5069987;28;20433;-66
2023/05/03 03:55:16;;;;;;;4.47;4.17;;;;;;;;;;5072156;28;20441;-67
2023/05/03 03:57:42;;;;;;;5.53;5.13;;;;;;;;;;5072597;28;20440;-68
2023/05/03 04:00:09;;;;;;;4.63;4.33;;;;;;;;;;5072469;28;20437;-67
2023/05/03 04:02:35;;;;;;;7.13;5.47;;;;;;;;;;5071387;28;20433;-70
2023/05/03 04:05:01;;;;;;;7.47;6.77;;;;;;;;;;5072636;28;20448;-67
2023/05/03 04:07:27;;;;;;;6.00;5.50;;;;;;;;;;5072970;28;20425;-67
2023/05/03 04:09:55;;;;;;;9.53;6.00;;;;;;;;;;5071834;28;20484;-68
2023/05/03 04:12:21;;;;;;;6.23;5.70;;;;;;;;;;5071926;28;20435;-66
2023/05/03 04:14:47;;;;;;;5.77;5.33;;;;;;;;;;5072497;28;20445;-67
2023/05/03 04:17:13;;;;;;;7.33;5.30;;;;;;;;;;5071851;28;20433;-68
2023/05/03 04:19:39;;;;;;;6.20;5.80;;;;;;;;;;5071948;28;20429;-68
2023/05/03 04:22:05;;;;;;;6.57;6.20;;;;;;;;;;5071934;28;20941;-68
2023/05/03 04:24:31;;;;;;;5.43;5.03;;;;;;;;;;5071620;28;20472;-67
2023/05/03 04:26:57;;;;;;;7.30;5.67;;;;;;;;;;5072348;28;20444;-67
2023/05/03 04:29:24;;;;;;;7.43;5.70;;;;;;;;;;5071436;28;20481;-67
2023/05/03 04:31:50;;;;;;;6.37;5.90;;;;;;;;;;5071635;28;20460;-67
2023/05/03 04:34:17;;;;;;;6.93;6.23;;;;;;;;;;5071983;28;20441;-67
2023/05/03 04:36:47;;;;;;;6.40;5.80;;;;;;;;;;5072219;28;20436;-66
2023/05/03 04:39:14;;;;;;;5.90;5.60;;;;;;;;;;5071625;28;20472;-67
2023/05/03 04:41:40;;;;;;;6.27;5.77;;;;;;;;;;5070485;28;20425;-66
2023/05/03 04:44:06;;;;;;;6.10;4.80;;;;;;;;;;5071956;28;20948;-67
2023/05/03 04:46:32;;;;;;;6.10;5.60;;;;;;;;;;5070931;28;20461;-66
2023/05/03 04:48:58;;;;;;;7.23;6.40;;;;;;;;;;5071435;28;20476;-66
2023/05/03 04:51:27;;;;;;;5.77;5.47;;;;;;;;;;5071181;28;20432;-67
2023/05/03 04:53:53;;;;;;;4.27;4.10;;;;;;;;;;5070990;28;20432;-67
2023/05/03 04:56:24;;;;;;;7.03;5.03;;;;;;;;;;5071198;28;20429;-67
2023/05/03 04:58:51;;;;;;;6.40;5.77;;;;;;;;;;5071190;28;20851;-68
2023/05/03 05:01:17;;;;;;;5.77;5.43;;;;;;;;;;5071145;28;20448;-66
2023/05/03 05:03:43;;;;;;;14.33;5.70;;;;;;;;;;5071037;28;20446;-67
2023/05/03 05:06:11;;;;;;;6.63;5.40;;;;;;;;;;5069816;28;20533;-66
2023/05/03 05:08:37;;;;;;;5.50;5.20;;;;;;;;;;5071685;28;20564;-68
2023/05/03 05:11:04;;;;;;;6.57;6.07;;;;;;;;;;5070048;28;20447;-68
2023/05/03 05:13:30;;;;;;;5.97;5.60;;;;;;;;;;5070738;28;20436;-67
2023/05/03 05:15:56;;;;;;;5.90;5.50;;;;;;;;;;5069404;28;20430;-68
2023/05/03 05:18:22;;;;;;;7.83;5.50;;;;;;;;;;5071068;28;20486;-67
2023/05/03 05:20:48;;;;;;;9.60;5.43;;;;;;;;;;5070672;28;20512;-66
2023/05/03 05:23:14;;;;;;;5.43;5.00;;;;;;;;;;5069420;28;20441;-68
2023/05/03 05:25:40;;;;;;;5.73;5.27;;;;;;;;;;5071545;28;20493;-67
2023/05/03 05:28:06;;;;;;;6.70;4.80;;;;;;;;;;5071533;28;20556;-67
2023/05/03 05:30:32;;;;;;;5.37;4.97;;;;;;;;;;5070843;28;20922;-65
2023/05/03 05:32:58;;;;;;;6.80;6.20;;;;;;;;;;5071230;28;20430;-66
2023/05/03 05:35:24;;;;;;;5.03;4.67;;;;;;;;;;5063360;28;20520;-66
2023/05/03 05:37:50;;;;;;;9.27;6.17;;;;;;;;;;5068536;28;20426;-66
2023/05/03 05:40:16;;;;;;;6.90;6.20;;;;;;;;;;5068444;28;20421;-67
2023/05/03 05:42:42;;;;;;;9.57;5.60;;;;;;;;;;5069762;28;20539;-66
2023/05/03 05:45:08;;;;;;;5.83;5.43;;;;;;;;;;5066347;28;21002;-66
2023/05/03 05:47:34;;;;;;;5.90;5.50;;;;;;;;;;5067108;28;20448;-67
2023/05/03 05:50:00;;;;;;;5.97;5.60;;;;;;;;;;5068721;28;20583;-67
2023/05/03 05:52:26;;;;;;;8.67;4.47;;;;;;;;;;5070119;28;20433;-67
2023/05/03 05:54:52;;;;;;;5.83;5.30;;;;;;;;;;5066820;28;20524;-67
2023/05/03 05:57:18;;;;;;;6.03;5.60;;;;;;;;;;5066342;28;20453;-66
2023/05/03 05:59:44;;;;;;;4.93;4.70;;;;;;;;;;5063720;28;20460;-67
2023/05/03 06:02:15;;;;;;;12.30;6.63;;;;;;;;;;5069023;28;20426;-66
2023/05/03 06:04:41;;;;;;;6.10;5.53;;;;;;;;;;5064026;28;20454;-66
2023/05/03 06:07:07;;;;;;;6.87;6.47;;;;;;;;;;5070087;28;20418;-66
2023/05/03 06:09:33;;;;;;;9.37;5.00;;;;;;;;;;5069505;28;20472;-67
2023/05/03 06:12:00;;;;;;;6.67;6.07;;;;;;;;;;5069825;28;20509;-66
2023/05/03 06:14:26;;;;;;;6.10;5.60;;;;;;;;;;5067799;28;20468;-66
2023/05/03 06:16:52;;;;;;;5.90;5.33;;;;;;;;;;5068708;28;20426;-67
2023/05/03 06:19:17;;;;;;;7.57;6.00;;;;;;;;;;5069115;28;20780;-67
2023/05/03 06:21:43;;;;;;;5.47;4.93;;;;;;;;;;5066863;28;20426;-68
2023/05/03 06:24:09;;;;;;;5.73;5.20;;;;;;;;;;5064003;28;20792;-67
2023/05/03 06:26:35;;;;;;;6.37;5.97;;;;;;;;;;5067458;28;20429;-67
2023/05/03 06:29:02;;;;;;;11.80;6.53;;;;;;;;;;5068724;28;20981;-68
2023/05/03 06:31:29;;;;;;;5.93;5.43;;;;;;;;;;5061086;28;20930;-67
2023/05/03 06:33:55;;;;;;;7.80;6.00;;;;;;;;;;5067510;28;20449;-67
2023/05/03 06:36:21;;;;;;;7.63;6.97;;;;;;;;;;5064544;28;20437;-67
2023/05/03 06:38:47;;;;;;;5.90;5.37;;;;;;;;;;5068959;28;20430;-67
2023/05/03 06:41:13;;;;;;;5.77;5.37;;;;;;;;;;5069317;28;20453;-66
2023/05/03 06:43:40;;;;;;;5.87;5.47;;;;;;;;;;5068020;28;20432;-66
2023/05/03 06:46:06;;;;;;;6.40;5.70;;;;;;;;;;5060490;28;20480;-66
2023/05/03 06:48:32;;;;;;;5.83;5.30;;;;;;;;;;5069406;28;20901;-66
2023/05/03 06:50:58;;;;;;;5.80;5.47;;;;;;;;;;5068385;28;20432;-67
2023/05/03 06:53:24;;;;;;;6.07;5.57;;;;;;;;;;5067269;28;20819;-66
2023/05/03 06:55:50;;;;;;;6.57;6.10;;;;;;;;;;5068524;28;20829;-66
2023/05/03 06:58:16;;;;;;;5.73;5.10;;;;;;;;;;5066318;28;21008;-66
2023/05/03 07:00:42;;;;;;;4.17;3.97;;;;;;;;;;5067307;28;20422;-66
2023/05/03 07:03:08;;;;;;;5.77;5.33;;;;;;;;;;5069430;28;20464;-66
2023/05/03 07:05:34;;;;;;;6.57;5.70;;;;;;;;;;5068228;28;20432;-65
2023/05/03 07:08:00;;;;;;;6.70;6.00;;;;;;;;;;5068694;28;20936;-67
2023/05/03 07:10:29;;;;;;;14.73;6.47;;;;;;;;;;5067684;28;20504;-67
2023/05/03 07:12:55;;;;;;;6.10;5.70;;;;;;;;;;5069446;28;20824;-67
2023/05/03 07:15:21;;;;;;;8.57;6.20;;;;;;;;;;5068433;28;20925;-66
2023/05/03 07:17:47;;;;;;;6.23;5.70;;;;;;;;;;5068313;28;20426;-67
2023/05/03 07:20:13;;;;;;;6.83;6.30;;;;;;;;;;5067561;28;20428;-66
2023/05/03 07:22:39;;;;;;;5.57;5.10;;;;;;;;;;5068871;28;20424;-67
2023/05/03 07:25:05;;;;;;;18.53;5.40;;;;;;;;;;5066993;28;20842;-66
2023/05/03 07:27:31;;;;;;;9.23;6.07;;;;;;;;;;5069583;28;20421;-67
2023/05/03 07:29:57;;;;;;;5.80;5.30;;;;;;;;;;5072449;28;20476;-66
2023/05/03 07:32:23;;;;;;;7.03;6.40;;;;;;;;;;5073847;28;20496;-66
2023/05/03 07:34:49;;;;;;;5.80;5.50;;;;;;;;;;5072143;28;20730;-67
2023/05/03 07:37:15;;;;;;;5.50;5.20;;;;;;;;;;5073473;28;20413;-66
2023/05/03 07:39:41;;;;;;;9.77;6.53;;;;;;;;;;5072542;28;20413;-66
2023/05/03 07:42:07;;;;;;;6.50;6.00;;;;;;;;;;5073589;28;20414;-66
2023/05/03 07:44:33;;;;;;;5.80;5.20;;;;;;;;;;5071688;28;20945;-66
2023/05/03 07:46:59;;;;;;;8.03;6.43;;;;;;;;;;5073462;28;21317;-68
2023/05/03 07:49:25;;;;;;;5.30;4.80;;;;;;;;;;5072875;28;20495;-67
2023/05/03 07:51:51;;;;;;;5.97;5.47;;;;;;;;;;5073244;28;20516;-66
2023/05/03 07:54:17;;;;;;;14.63;5.97;;;;;;;;;;5072788;28;20526;-66
2023/05/03 07:56:43;;;;;;;6.30;5.90;;;;;;;;;;5071474;28;20971;-66
2023/05/03 07:59:09;;;;;;;12.50;6.93;;;;;;;;;;5071183;28;20453;-66
2023/05/03 08:01:35;;;;;;;9.60;5.07;;;;;;;;;;5067805;28;20437;-66
2023/05/03 08:04:01;;;;;;;6.47;5.97;;;;;;;;;;5072935;28;20550;-66
2023/05/03 08:06:27;;;;;;;6.47;5.93;;;;;;;;;;5072071;28;20422;-66
2023/05/03 08:08:53;;;;;;;6.30;5.90;;;;;;;;;;5071805;28;20560;-67
2023/05/03 08:11:19;;;;;;;6.40;5.87;;;;;;;;;;5068058;28;20532;-67
2023/05/03 08:13:45;;;;;;;5.90;5.50;;;;;;;;;;5070610;28;20425;-67
2023/05/03 08:16:13;;;;;;;6.30;5.80;;;;;;;;;;5072707;28;20428;-66
2023/05/03 08:18:39;;;;;;;6.47;5.97;;;;;;;;;;5071311;28;20785;-68
2023/05/03 08:21:06;;;;;;;5.83;5.43;;;;;;;;;;5071447;28;20428;-66
2023/05/03 08:23:32;;;;;;;7.47;5.00;;;;;;;;;;5072034;28;20860;-66
2023/05/03 08:25:59;;;;;;;5.53;5.13;;;;;;;;;;5069852;28;20536;-66
2023/05/03 08:28:26;;;;;;;4.67;4.47;;;;;;;;;;5069764;28;20477;-67
2023/05/03 08:30:52;;;;;;;5.73;5.23;;;;;;;;;;5070752;28;20434;-67
2023/05/03 08:33:18;;;;;;;5.50;5.20;;;;;;;;;;5070698;28;20477;-67
2023/05/03 08:35:44;;;;;;;6.27;5.87;;;;;;;;;;5072260;28;20464;-67
2023/05/03 08:38:09;;;;;;;7.43;6.73;;;;;;;;;;5070369;28;20440;-67
2023/05/03 08:40:38;;;;;;;9.77;6.03;;;;;;;;;;5071113;28;20441;-68
2023/05/03 08:43:07;;;;;;;6.30;5.80;;;;;;;;;;5071933;28;20580;-67
2023/05/03 08:45:34;;;;;;;6.40;5.90;;;;;;;;;;5071818;28;20555;-67
2023/05/03 08:48:02;;;;;;;6.10;5.67;;;;;;;;;;5072166;28;20430;-68
2023/05/03 08:50:28;;;;;;;6.77;6.17;;;;;;;;;;5070357;28;20476;-67
2023/05/03 08:52:54;;;;;;;6.57;6.03;;;;;;;;;;5071961;28;20447;-71
2023/05/03 08:55:20;;;;;;;6.20;5.77;;;;;;;;;;5071828;28;20425;-66
2023/05/03 08:57:46;;;;;;;6.10;5.70;;;;;;;;;;5071979;28;20426;-68
2023/05/03 09:00:13;;;;;;;6.30;6.00;;;;;;;;;;5071301;28;20432;-67
2023/05/03 09:02:39;;;;;;;5.67;5.30;;;;;;;;;;5070639;28;20921;-67
2023/05/03 09:05:25;;;;;;;6.20;5.77;;;;;;;;;;5071911;28;20461;-67
2023/05/03 09:08:11;;;;;;;5.43;5.20;;;;;;;;;;5070047;28;20421;-67
2023/05/03 09:10:40;;;;;;;6.20;5.60;;;;;;;;;;5071585;28;20446;-68
2023/05/03 09:13:07;;;;;;;6.37;5.90;;;;;;;;;;5071938;28;20560;-67
2023/05/03 09:15:34;;;;;;;5.90;5.47;;;;;;;;;;5071343;28;20439;-66
2023/05/03 09:18:07;;;;;;;6.13;5.50;;;;;;;;;;5071680;28;20421;-67
2023/05/03 09:20:36;;;;;;;6.10;5.70;;;;;;;;;;5070245;28;21938;-66
2023/05/03 09:23:02;;;;;;;6.97;6.17;;;;;;;;;;5070741;28;20413;-67
2023/05/03 09:25:41;;;;;;;6.80;6.20;;;;;;;;;;5071385;28;20425;-68
2023/05/03 09:28:08;;;;;;;5.37;4.97;;;;;;;;;;5071592;28;20440;-67
2023/05/03 09:30:34;;;;;;;7.33;5.30;;;;;;;;;;5070672;28;20936;-67
2023/05/03 09:33:00;;;;;;;4.93;4.57;;;;;;;;;;5071400;28;20786;-66
2023/05/03 09:35:25;;;;;;;7.40;6.77;;;;;;;;;;5070424;28;20426;-67
2023/05/03 09:37:51;;;;;;;5.40;5.10;;;;;;;;;;5070454;28;20834;-67
2023/05/03 09:40:17;;;;;;;5.70;5.30;;;;;;;;;;5069091;28;20532;-67
2023/05/03 09:43:02;;;;;;;8.33;5.70;;;;;;;;;;5069970;28;20426;-67
2023/05/03 09:45:28;;;;;;;5.77;5.37;;;;;;;;;;5070852;28;20898;-67
2023/05/03 09:47:55;;;;;;;4.20;3.90;;;;;;;;;;5070901;28;20986;-67
2023/05/03 09:50:22;;;;;;;5.53;4.77;;;;;;;;;;5069966;28;20922;-68
2023/05/03 09:52:48;;;;;;;5.83;5.63;;;;;;;;;;5070483;28;20422;-67
2023/05/03 09:55:16;;;;;;;5.90;5.40;;;;;;;;;;5068966;28;20520;-67
2023/05/03 09:57:44;;;;;;;6.20;5.70;;;;;;;;;;5070763;28;20520;-67
2023/05/03 10:00:12;;;;;;;5.80;5.40;;;;;;;;;;5070255;28;20965;-67
2023/05/03 10:02:38;;;;;;;6.03;5.53;;;;;;;;;;5069682;28;20448;-67
2023/05/03 10:05:05;;;;;;;6.80;4.90;;;;;;;;;;5070120;28;20512;-67
2023/05/03 10:07:32;;;;;;;6.27;5.77;;;;;;;;;;5070136;28;20691;-66
2023/05/03 10:09:58;;;;;;;5.33;4.83;;;;;;;;;;5067297;28;20666;-67
2023/05/03 10:12:25;;;;;;;6.30;5.90;;;;;;;;;;5070694;28;20925;-67
2023/05/03 10:14:52;;;;;;;5.97;5.47;;;;;;;;;;5070739;28;20413;-66
2023/05/03 10:17:22;;;;;;;5.23;4.80;;;;;;;;;;5070457;28;20451;-67
2023/05/03 10:20:06;;;;;;;5.40;5.00;;;;;;;;;;5069557;28;20673;-68
2023/05/03 10:22:32;;;;;;;6.17;5.57;;;;;;;;;;5070194;28;20435;-67
2023/05/03 10:25:01;;;;;;;4.93;4.53;;;;;;;;;;5070325;28;20410;-67
2023/05/03 10:27:56;;;;;;;4.50;4.10;;;;;;;;;;5068515;28;20421;-67
2023/05/03 10:30:25;;;;;;;3.67;3.30;;;;;;;;;;5060737;28;20520;-66
2023/05/03 10:32:51;;;;;;;6.00;4.70;;;;;;;;;;5067256;28;20438;-67
2023/05/03 10:35:18;;;;;;;3.87;3.67;;;;;;;;;;5068665;28;20445;-66
2023/05/03 10:37:44;;;;;;;4.73;4.33;;;;;;;;;;5066038;28;20454;-68
2023/05/03 10:40:14;;;;;;;6.97;3.93;;;;;;;;;;5068139;28;20425;-67
2023/05/03 10:42:45;;;;;;;7.60;4.97;;;;;;;;;;5069459;28;20457;-67
2023/05/03 10:45:25;;;;;;;8.20;5.73;;;;;;;;;;5067794;28;20501;-66
2023/05/03 10:48:09;;;;;;;3.87;3.60;;;;;;;;;;5068812;28;20997;-66
2023/05/03 10:50:36;;;;;;;5.27;5.00;;;;;;;;;;5069024;28;20437;-67
2023/05/03 10:53:02;;;;;;;4.10;3.80;;;;;;;;;;5069667;28;20525;-67
2023/05/03 10:55:28;;;;;;;4.40;4.10;;;;;;;;;;5069717;28;20873;-67
2023/05/03 10:57:55;;;;;;;4.70;4.40;;;;;;;;;;5069919;28;20512;-66
2023/05/03 11:00:21;;;;;;;5.20;4.67;;;;;;;;;;5069097;28;20426;-67
2023/05/03 11:02:47;;;;;;;4.50;4.20;;;;;;;;;;5069044;28;20922;-68
2023/05/03 11:05:14;;;;;;;4.00;3.67;;;;;;;;;;5068374;28;20483;-67
2023/05/03 11:07:40;;;;;;;5.03;4.00;;;;;;;;;;5069180;28;20459;-66
2023/05/03 11:10:16;;;;;;;5.10;4.20;;;;;;;;;;5067368;28;20473;-69
2023/05/03 11:12:42;;;;;;;23.00;6.10;;;;;;;;;;5069747;28;20496;-67
2023/05/03 11:15:10;;;;;;;21.07;4.80;;;;;;;;;;5067243;28;20533;-66
2023/05/03 11:17:37;;;;;;;3.67;3.47;;;;;;;;;;5069445;28;20425;-67
2023/05/03 11:20:03;;;;;;;3.13;3.03;;;;;;;;;;5068103;28;20843;-68
2023/05/03 11:22:29;;;;;;;4.50;3.60;;;;;;;;;;5068983;28;20448;-67
2023/05/03 11:24:55;;;;;;;4.27;3.63;;;;;;;;;;5067208;28;20543;-67
2023/05/03 11:27:25;;;;;;;3.47;3.23;;;;;;;;;;5069499;28;20417;-67
2023/05/03 11:29:52;;;;;;;7.90;4.70;;;;;;;;;;5069008;28;20512;-67
2023/05/03 11:32:18;;;;;;;4.33;3.57;;;;;;;;;;5067809;28;20425;-67
2023/05/03 11:34:45;;;;;;;4.27;3.20;;;;;;;;;;5069589;28;20440;-67
2023/05/03 11:37:11;;;;;;;4.60;3.50;;;;;;;;;;5068254;28;20765;-66
2023/05/03 11:39:38;;;;;;;3.07;2.87;;;;;;;;;;5067048;28;20434;-67
2023/05/03 11:42:04;;;;;;;3.40;3.30;;;;;;;;;;5066895;28;20949;-67
2023/05/03 11:44:30;;;;;;;2.97;2.00;;;;;;;;;;5066521;28;20453;-67
2023/05/03 11:46:56;;;;;;;3.30;3.10;;;;;;;;;;5067018;28;20441;-70
2023/05/03 11:49:23;;;;;;;3.80;3.60;;;;;;;;;;5068917;28;20477;-69
2023/05/03 11:51:51;;;;;;;3.63;3.33;;;;;;;;;;5069410;28;20430;-67
2023/05/03 11:54:17;;;;;;;4.13;3.83;;;;;;;;;;5067391;28;20536;-67
2023/05/03 11:56:43;;;;;;;5.13;4.10;;;;;;;;;;5066461;28;20581;-67
2023/05/03 11:59:09;;;;;;;3.20;3.00;;;;;;;;;;5066659;28;20543;-68
2023/05/03 12:01:36;;;;;;;3.60;3.50;;;;;;;;;;5067624;28;20440;-66
2023/05/03 12:04:03;;;;;;;6.13;3.30;;;;;;;;;;5063659;28;20546;-67
2023/05/03 12:06:32;;;;;;;4.00;3.80;;;;;;;;;;5068617;28;20512;-66
2023/05/03 12:08:58;;;;;;;4.70;4.10;;;;;;;;;;5065924;28;20488;-67
2023/05/03 12:11:24;;;;;;;4.07;3.87;;;;;;;;;;5067919;28;20433;-67
2023/05/03 12:13:57;;;;;;;6.53;3.27;;;;;;;;;;5069400;28;20420;-66
2023/05/03 12:16:23;;;;;;;3.73;3.50;;;;;;;;;;5068094;28;20456;-67
2023/05/03 12:18:54;;;;;;;3.70;3.60;;;;;;;;;;5071625;28;20433;-68
2023/05/03 12:21:20;;;;;;;3.80;3.67;;;;;;;;;;5069318;28;20485;-67
2023/05/03 12:23:48;;;;;;;7.40;4.30;;;;;;;;;;5068402;28;20441;-67
2023/05/03 12:26:14;;;;;;;3.33;3.00;;;;;;;;;;5071687;28;20413;-67
2023/05/03 12:28:40;;;;;;;4.30;4.00;;;;;;;;;;5068479;28;20484;-67
2023/05/03 12:31:06;;;;;;;3.97;3.70;;;;;;;;;;5071002;28;20417;-66
2023/05/03 12:33:32;;;;;;;5.60;3.80;;;;;;;;;;5069387;28;20522;-67
2023/05/03 12:35:58;;;;;;;4.17;3.87;;;;;;;;;;5070598;28;20429;-67
2023/05/03 12:38:24;;;;;;;7.97;4.70;;;;;;;;;;5069642;28;20490;-67
2023/05/03 12:40:51;;;;;;;3.87;3.57;;;;;;;;;;5071685;28;20430;-67
2023/05/03 12:43:17;;;;;;;3.97;3.63;;;;;;;;;;5072388;28;20967;-67
2023/05/03 12:45:43;;;;;;;4.53;4.13;;;;;;;;;;5071973;28;20469;-67
2023/05/03 12:48:10;;;;;;;4.43;4.13;;;;;;;;;;5071410;28;20444;-66
2023/05/03 12:50:36;;;;;;;6.13;4.57;;;;;;;;;;5071728;28;20483;-66
2023/05/03 12:53:02;;;;;;;4.07;3.60;;;;;;;;;;5071679;28;20444;-68
2023/05/03 12:55:32;;;;;;;5.00;2.80;;;;;;;;;;5069248;28;20437;-68
2023/05/03 12:57:58;;;;;;;4.03;3.83;;;;;;;;;;5069678;28;20432;-68
2023/05/03 13:00:24;;;;;;;6.10;3.90;;;;;;;;;;5071662;28;20418;-68
2023/05/03 13:02:50;;;;;;;3.80;3.50;;;;;;;;;;5071950;28;20413;-67
2023/05/03 13:05:16;;;;;;;9.37;3.70;;;;;;;;;;5071896;28;20523;-67
2023/05/03 13:07:42;;;;;;;3.60;2.80;;;;;;;;;;5071652;28;20426;-67
2023/05/03 13:10:09;;;;;;;4.00;3.77;;;;;;;;;;5070567;28;20539;-67
2023/05/03 13:12:35;;;;;;;11.83;3.80;;;;;;;;;;5071431;28;20445;-67
2023/05/03 13:15:02;;;;;;;2.83;2.73;;;;;;;;;;5070420;28;20518;-67
2023/05/03 13:17:29;;;;;;;3.93;3.63;;;;;;;;;;5068757;28;20520;-67
2023/05/03 13:19:55;;;;;;;8.03;3.60;;;;;;;;;;5070395;28;20909;-68
2023/05/03 13:22:21;;;;;;;3.03;2.80;;;;;;;;;;5069695;28;20899;-67
2023/05/03 13:24:48;;;;;;;3.50;3.30;;;;;;;;;;5065758;28;20449;-68
2023/05/03 13:27:14;;;;;;;2.70;2.60;;;;;;;;;;5069643;28;20539;-69
2023/05/03 13:29:40;;;;;;;3.37;3.27;;;;;;;;;;5066165;28;20481;-67
2023/05/03 13:32:08;;;;;;;4.87;2.97;;;;;;;;;;5068590;28;20456;-66
2023/05/03 13:34:34;;;;;;;2.77;2.67;;;;;;;;;;5069253;28;20445;-67
2023/05/03 13:37:01;;;;;;;3.60;3.40;;;;;;;;;;5064765;28;20434;-67
2023/05/03 13:39:27;;;;;;;8.33;2.97;;;;;;;;;;5068461;28;20437;-67
2023/05/03 13:41:53;;;;;;;2.80;2.70;;;;;;;;;;5065727;28;20811;-67
2023/05/03 13:44:19;;;;;;;2.87;2.77;;;;;;;;;;5068412;28;20481;-67
2023/05/03 13:46:46;;;;;;;4.33;2.70;;;;;;;;;;5069619;28;20981;-66
2023/05/03 13:49:12;;;;;;;3.13;2.90;;;;;;;;;;5069050;28;20507;-66
2023/05/03 13:51:38;;;;;;;3.87;2.60;;;;;;;;;;5067049;28;20429;-68
2023/05/03 13:54:05;;;;;;;4.37;4.17;;;;;;;;;;5069168;28;20483;-69
2023/05/03 13:56:32;;;;;;;6.17;3.30;;;;;;;;;;5069302;28;21051;-67
2023/05/03 13:58:58;;;;;;;2.73;2.63;;;;;;;;;;5068888;28;20897;-67
2023/05/03 14:01:24;;;;;;;4.93;3.17;;;;;;;;;;5068905;28;20495;-67
2023/05/03 14:03:51;;;;;;;3.40;3.20;;;;;;;;;;5068972;28;20429;-69
2023/05/03 14:06:17;;;;;;;4.80;3.83;;;;;;;;;;5067946;28;20436;-67
2023/05/03 14:08:43;;;;;;;5.10;4.73;;;;;;;;;;5068651;28;20464;-70
2023/05/03 14:11:15;;;;;;;2.97;2.87;;;;;;;;;;5068891;28;20556;-70
2023/05/03 14:13:41;;;;;;;5.47;3.10;;;;;;;;;;5069242;28;20962;-68
2023/05/03 14:16:14;;;;;;;3.27;3.07;;;;;;;;;;5068162;28;20442;-67
2023/05/03 14:18:40;;;;;;;4.07;3.97;;;;;;;;;;5068717;28;20476;-67
2023/05/03 14:21:06;;;;;;;3.57;3.40;;;;;;;;;;5068702;28;20921;-66
2023/05/03 14:23:32;;;;;;;4.70;2.83;;;;;;;;;;5067201;28;20929;-67
2023/05/03 14:25:58;;;;;;;13.13;4.47;;;;;;;;;;5065241;28;20907;-67
2023/05/03 14:28:24;;;;;;;4.50;3.67;;;;;;;;;;5066463;28;20556;-68
2023/05/03 14:30:50;;;;;;;3.17;2.97;;;;;;;;;;5067859;28;20430;-67
2023/05/03 14:33:17;;;;;;;4.07;3.80;;;;;;;;;;5068587;28;20463;-67
2023/05/03 14:35:43;;;;;;;3.80;3.63;;;;;;;;;;5067074;28;20976;-69
2023/05/03 14:38:09;;;;;;;6.13;3.20;;;;;;;;;;5068329;28;20421;-69
2023/05/03 14:40:36;;;;;;;2.90;2.80;;;;;;;;;;5067555;28;20433;-67
2023/05/03 14:43:02;;;;;;;7.80;3.43;;;;;;;;;;5066187;28;20449;-69